Time;durP1;ratioP1;P1;durP2;ratioP2;P2;SDS_P1;SDS_P2;PMS_P1;PMS_P2;Temp;Humidity;BMP_temperature;BMP_pressure;BME280_temperature;BME280_humidity;BME280_pressure;Samples;Min_cycle;Max_cycle;Signal;HPM_P1;HPM_P2
2022/11/08 00:01:30;;;;;;;;;;;12.40;99.90;;;;;;5107117;27;1028;-70
2022/11/08 00:03:56;;;;;;;;;;;12.40;99.90;;;;;;5103306;27;1288;-70
2022/11/08 00:14:34;;;;;;;;;;;12.60;99.90;;;;;;5101008;28;1064;-70
2022/11/08 00:17:00;;;;;;;;;;;12.60;99.90;;;;;;5100624;28;1978;-70
2022/11/08 00:19:26;;;;;;;;;;;12.60;99.90;;;;;;5101645;28;1218;-70
2022/11/08 00:21:51;;;;;;;;;;;12.60;99.90;;;;;;5108742;27;1065;-70
2022/11/08 00:24:17;;;;;;;;;;;12.60;99.90;;;;;;5102196;28;1012;-70
2022/11/08 00:26:43;;;;;;;;;;;12.60;99.90;;;;;;5102212;28;1001;-70
2022/11/08 00:29:08;;;;;;;;;;;12.60;99.90;;;;;;5100052;28;1062;-70
2022/11/08 00:31:34;;;;;;;;;;;12.60;99.90;;;;;;5089471;28;1947;-70
2022/11/08 00:34:00;;;;;;;;;;;12.60;99.90;;;;;;5101639;28;1004;-70
2022/11/08 00:36:25;;;;;;;;;;;12.70;99.90;;;;;;5106969;28;1972;-70
2022/11/08 00:38:51;;;;;;;;;;;12.70;99.90;;;;;;5106048;28;1073;-70
2022/11/08 00:41:17;;;;;;;;;;;12.70;99.90;;;;;;5108058;28;1027;-70
2022/11/08 00:43:42;;;;;;;;;;;12.70;99.90;;;;;;5101066;28;973;-70
2022/11/08 00:46:08;;;;;;;;;;;12.60;99.90;;;;;;5102151;28;1032;-70
2022/11/08 00:48:34;;;;;;;;;;;12.60;99.90;;;;;;5102095;28;1120;-70
2022/11/08 00:51:01;;;;;;;;;;;12.70;99.90;;;;;;5103449;28;1480;-70
2022/11/08 00:53:27;;;;;;;;;;;12.60;99.90;;;;;;5105571;28;1004;-70
2022/11/08 00:55:58;;;;;;;;;;;12.70;99.90;;;;;;5106900;28;1112;-70
2022/11/08 00:58:23;;;;;;;;;;;12.70;99.90;;;;;;5106733;28;1910;-70
2022/11/08 01:00:49;;;;;;;;;;;12.70;99.90;;;;;;5108150;28;995;-70
2022/11/08 01:03:21;;;;;;;;;;;12.70;99.90;;;;;;5104262;28;1133;-70
2022/11/08 01:05:47;;;;;;;;;;;12.70;99.90;;;;;;5098945;28;1493;-70
2022/11/08 01:08:13;;;;;;;;;;;12.70;99.90;;;;;;5108275;28;1107;-70
2022/11/08 01:10:40;;;;;;;;;;;12.70;99.90;;;;;;5103741;27;1006;-71
2022/11/08 01:13:05;;;;;;;;;;;12.70;99.90;;;;;;5104812;27;1011;-70
2022/11/08 01:15:35;;;;;;;;;;;12.70;99.90;;;;;;5107149;27;991;-70
2022/11/08 01:18:01;;;;;;;;;;;12.60;99.90;;;;;;5110782;27;1973;-70
2022/11/08 01:20:27;;;;;;;;;;;12.60;99.90;;;;;;5112400;27;1062;-70
2022/11/08 01:22:52;;;;;;;;;;;12.60;99.90;;;;;;5090127;28;928;-70
2022/11/08 01:25:18;;;;;;;;;;;12.60;99.90;;;;;;5107742;27;1070;-70
2022/11/08 01:27:43;;;;;;;;;;;12.60;99.90;;;;;;5103499;27;925;-70
2022/11/08 01:30:09;;;;;;;;;;;12.30;99.90;;;;;;5105534;27;1287;-70
2022/11/08 01:32:35;;;;;;;;;;;12.70;99.90;;;;;;5106301;27;996;-70
2022/11/08 01:35:00;;;;;;;;;;;12.60;99.90;;;;;;5110365;27;1067;-70
2022/11/08 01:37:26;;;;;;;;;;;12.60;99.90;;;;;;5102066;27;1909;-70
2022/11/08 01:39:51;;;;;;;;;;;12.60;99.90;;;;;;5107450;27;1005;-70
2022/11/08 01:42:25;;;;;;;;;;;12.50;99.90;;;;;;5108108;27;1196;-70
2022/11/08 01:44:56;;;;;;;;;;;12.50;99.90;;;;;;5101810;28;1023;-70
2022/11/08 01:47:22;;;;;;;;;;;12.50;99.90;;;;;;5103771;27;988;-70
2022/11/08 01:49:48;;;;;;;;;;;12.40;99.90;;;;;;5104813;27;997;-71
2022/11/08 01:52:18;;;;;;;;;;;12.40;99.90;;;;;;5106476;27;1407;-70
2022/11/08 01:54:49;;;;;;;;;;;12.40;99.90;;;;;;5108973;27;1056;-70
2022/11/08 01:57:18;;;;;;;;;;;12.40;99.90;;;;;;5104504;27;2013;-70
2022/11/08 01:59:46;;;;;;;;;;;12.40;99.90;;;;;;5109683;27;1099;-70
2022/11/08 02:02:12;;;;;;;;;;;12.40;99.90;;;;;;5111377;27;1063;-70
2022/11/08 02:04:38;;;;;;;;;;;12.30;99.90;;;;;;5105869;27;1144;-70
2022/11/08 02:07:06;;;;;;;;;;;12.30;99.90;;;;;;5103748;27;1078;-70
2022/11/08 02:09:33;;;;;;;;;;;12.30;99.90;;;;;;5107272;27;970;-70
2022/11/08 02:11:59;;;;;;;;;;;12.30;99.90;;;;;;5104927;27;974;-70
2022/11/08 02:14:24;;;;;;;;;;;12.30;99.90;;;;;;5104739;27;1074;-70
2022/11/08 02:16:50;;;;;;;;;;;12.30;99.90;;;;;;5108550;27;1926;-70
2022/11/08 02:19:19;;;;;;;;;;;12.30;99.90;;;;;;5104848;27;1063;-69
2022/11/08 02:21:48;;;;;;;;;;;12.40;99.90;;;;;;5105672;27;996;-71
2022/11/08 02:24:14;;;;;;;;;;;12.40;99.90;;;;;;5107388;27;1037;-71
2022/11/08 02:26:40;;;;;;;;;;;12.40;99.90;;;;;;5105527;27;1079;-71
2022/11/08 02:29:23;;;;;;;;;;;12.40;99.90;;;;;;5104319;27;1028;-70
2022/11/08 02:31:49;;;;;;;;;;;12.30;99.90;;;;;;5105679;27;1100;-71
2022/11/08 02:34:14;;;;;;;;;;;12.30;99.90;;;;;;5104940;27;1370;-71
2022/11/08 02:36:41;;;;;;;;;;;12.30;99.90;;;;;;5103456;28;1910;-71
2022/11/08 02:39:07;;;;;;;;;;;12.30;99.90;;;;;;5104567;27;1031;-70
2022/11/08 02:41:32;;;;;;;;;;;12.20;99.90;;;;;;5104304;27;1128;-70
2022/11/08 02:43:58;;;;;;;;;;;12.20;99.90;;;;;;5104478;27;1073;-70
2022/11/08 02:46:24;;;;;;;;;;;12.20;99.90;;;;;;5106607;27;1144;-71
2022/11/08 02:48:49;;;;;;;;;;;12.20;99.90;;;;;;5103642;27;1413;-70
2022/11/08 02:51:15;;;;;;;;;;;12.10;99.90;;;;;;5104835;27;1274;-70
2022/11/08 02:53:40;;;;;;;;;;;12.10;99.90;;;;;;5106656;27;1004;-71
2022/11/08 02:56:06;;;;;;;;;;;12.10;99.90;;;;;;5106029;27;1003;-70
2022/11/08 02:58:32;;;;;;;;;;;12.10;99.90;;;;;;5103191;27;1969;-70
2022/11/08 03:00:57;;;;;;;;;;;12.00;99.90;;;;;;5102880;27;1042;-71
2022/11/08 03:03:23;;;;;;;;;;;12.00;99.90;;;;;;5100470;27;1021;-71
2022/11/08 03:05:49;;;;;;;;;;;12.00;99.90;;;;;;5100998;27;1450;-70
2022/11/08 03:08:14;;;;;;;;;;;11.90;99.90;;;;;;5108979;27;1052;-70
2022/11/08 03:10:40;;;;;;;;;;;11.90;99.90;;;;;;5106459;27;1202;-71
2022/11/08 03:13:06;;;;;;;;;;;11.90;99.90;;;;;;5103174;27;985;-70
2022/11/08 03:15:32;;;;;;;;;;;11.80;99.90;;;;;;5103349;27;1027;-70
2022/11/08 03:17:58;;;;;;;;;;;11.80;99.90;;;;;;5103340;27;1905;-70
2022/11/08 03:20:25;;;;;;;;;;;11.80;99.90;;;;;;5104880;27;1088;-70
2022/11/08 03:22:57;;;;;;;;;;;11.70;99.90;;;;;;5107363;27;1120;-71
2022/11/08 03:25:23;;;;;;;;;;;11.70;99.90;;;;;;5105655;27;1660;-70
2022/11/08 03:27:49;;;;;;;;;;;11.70;99.90;;;;;;5103109;27;1066;-71
2022/11/08 03:30:14;;;;;;;;;;;11.70;99.90;;;;;;5107921;27;1326;-70
2022/11/08 03:32:42;;;;;;;;;;;11.70;99.90;;;;;;5104385;27;1056;-70
2022/11/08 03:35:08;;;;;;;;;;;11.70;99.90;;;;;;5106599;27;1075;-70
2022/11/08 03:37:33;;;;;;;;;;;11.70;99.90;;;;;;5080935;28;2055;-70
2022/11/08 03:39:59;;;;;;;;;;;11.60;99.90;;;;;;5109833;27;973;-70
2022/11/08 03:42:24;;;;;;;;;;;11.70;99.90;;;;;;5102280;27;1183;-70
2022/11/08 03:44:50;;;;;;;;;;;11.70;99.90;;;;;;5102893;27;978;-70
2022/11/08 03:47:16;;;;;;;;;;;11.60;99.90;;;;;;5089390;28;989;-70
2022/11/08 03:49:41;;;;;;;;;;;11.60;99.90;;;;;;5108598;27;1029;-70
2022/11/08 03:52:07;;;;;;;;;;;11.60;99.90;;;;;;5101787;27;1356;-71
2022/11/08 03:54:33;;;;;;;;;;;11.50;99.90;;;;;;5106095;27;1043;-70
2022/11/08 03:56:58;;;;;;;;;;;11.50;99.90;;;;;;5105309;27;1905;-70
2022/11/08 03:59:24;;;;;;;;;;;11.60;99.90;;;;;;5104721;27;1091;-70
2022/11/08 04:01:49;;;;;;;;;;;11.50;99.90;;;;;;5087455;28;1076;-70
2022/11/08 04:04:15;;;;;;;;;;;11.50;99.90;;;;;;5101732;27;1334;-70
2022/11/08 04:06:40;;;;;;;;;;;11.50;99.90;;;;;;5105322;27;987;-70
2022/11/08 04:09:06;;;;;;;;;;;11.50;99.90;;;;;;5105531;27;995;-70
2022/11/08 04:17:01;;;;;;;;;;;11.60;99.90;;;;;;5102980;27;1976;-70
2022/11/08 04:22:11;;;;;;;;;;;11.50;99.90;;;;;;5109015;27;1079;-70
2022/11/08 04:24:37;;;;;;;;;;;11.50;99.90;;;;;;5101153;28;1119;-70
2022/11/08 04:27:03;;;;;;;;;;;11.40;99.90;;;;;;5101733;28;1090;-70
2022/11/08 04:29:28;;;;;;;;;;;11.40;99.90;;;;;;5080980;28;1017;-70
2022/11/08 04:31:54;;;;;;;;;;;11.40;99.90;;;;;;5104914;28;1108;-70
2022/11/08 04:34:20;;;;;;;;;;;11.40;99.90;;;;;;5108256;28;1209;-70
2022/11/08 04:36:45;;;;;;;;;;;11.30;99.90;;;;;;5101772;28;1909;-70
2022/11/08 04:39:11;;;;;;;;;;;11.30;99.90;;;;;;5107461;28;1148;-70
2022/11/08 04:41:37;;;;;;;;;;;11.30;99.90;;;;;;5102330;28;1024;-70
2022/11/08 04:44:02;;;;;;;;;;;11.20;99.90;;;;;;5106139;28;1088;-71
2022/11/08 04:46:28;;;;;;;;;;;11.20;99.90;;;;;;5103816;28;1045;-70
2022/11/08 04:48:55;;;;;;;;;;;11.20;99.90;;;;;;5108290;27;1473;-70
2022/11/08 04:51:22;;;;;;;;;;;11.20;99.90;;;;;;5107643;27;1384;-70
2022/11/08 04:53:48;;;;;;;;;;;11.20;99.90;;;;;;5103656;28;1073;-70
2022/11/08 04:56:18;;;;;;;;;;;11.10;99.90;;;;;;5087109;28;1457;-70
2022/11/08 04:58:45;;;;;;;;;;;11.10;99.90;;;;;;5104693;27;1062;-70
2022/11/08 05:01:11;;;;;;;;;;;11.10;99.90;;;;;;5108965;27;1098;-70
2022/11/08 05:03:37;;;;;;;;;;;11.10;99.90;;;;;;5108852;27;1284;-70
2022/11/08 05:06:03;;;;;;;;;;;11.10;99.90;;;;;;5108327;27;1048;-70
2022/11/08 05:08:29;;;;;;;;;;;11.10;99.90;;;;;;5107113;27;1017;-70
2022/11/08 05:11:03;;;;;;;;;;;11.10;99.90;;;;;;5111302;27;999;-70
2022/11/08 05:13:29;;;;;;;;;;;11.10;99.90;;;;;;5105501;27;1047;-70
2022/11/08 05:15:58;;;;;;;;;;;11.10;99.90;;;;;;5100095;27;1873;-70
2022/11/08 05:18:23;;;;;;;;;;;11.10;99.90;;;;;;5105806;27;1913;-70
2022/11/08 05:23:36;;;;;;;;;;;11.10;99.90;;;;;;5105970;27;1024;-70
2022/11/08 05:26:02;;;;;;;;;;;11.10;99.90;;;;;;5111568;27;960;-70
2022/11/08 05:28:28;;;;;;;;;;;11.10;99.90;;;;;;5105800;27;1032;-70
2022/11/08 05:30:54;;;;;;;;;;;11.10;99.90;;;;;;5105712;27;1211;-70
2022/11/08 05:33:20;;;;;;;;;;;11.10;99.90;;;;;;5103441;27;1080;-70
2022/11/08 05:35:46;;;;;;;;;;;11.00;99.90;;;;;;5105772;27;1127;-70
2022/11/08 05:38:11;;;;;;;;;;;11.00;99.90;;;;;;5105445;27;1914;-70
2022/11/08 05:40:37;;;;;;;;;;;11.00;99.90;;;;;;5104305;27;1016;-70
2022/11/08 05:43:02;;;;;;;;;;;11.00;99.90;;;;;;5110889;27;991;-70
2022/11/08 05:45:28;;;;;;;;;;;11.00;99.90;;;;;;5104870;27;1071;-70
2022/11/08 05:47:54;;;;;;;;;;;11.00;99.90;;;;;;5105722;27;985;-70
2022/11/08 05:50:20;;;;;;;;;;;11.00;99.90;;;;;;5103640;27;1059;-70
2022/11/08 05:52:46;;;;;;;;;;;10.90;99.90;;;;;;5110226;27;1442;-70
2022/11/08 05:55:11;;;;;;;;;;;10.90;99.90;;;;;;5104049;27;952;-70
2022/11/08 05:57:40;;;;;;;;;;;10.90;99.90;;;;;;5111061;27;1980;-70
2022/11/08 06:00:06;;;;;;;;;;;11.00;99.90;;;;;;5107670;27;1095;-70
2022/11/08 06:02:37;;;;;;;;;;;10.90;99.90;;;;;;5106787;27;1111;-70
2022/11/08 06:05:04;;;;;;;;;;;10.90;99.90;;;;;;5108284;27;1529;-70
2022/11/08 06:07:30;;;;;;;;;;;10.90;99.90;;;;;;5109096;27;1033;-70
2022/11/08 06:09:55;;;;;;;;;;;10.80;99.90;;;;;;5110236;27;1229;-71
2022/11/08 06:12:21;;;;;;;;;;;10.80;99.90;;;;;;5104399;27;864;-70
2022/11/08 06:14:47;;;;;;;;;;;10.80;99.90;;;;;;5109742;27;978;-71
2022/11/08 06:17:12;;;;;;;;;;;10.80;99.90;;;;;;5110076;27;2007;-71
2022/11/08 06:19:38;;;;;;;;;;;10.80;99.90;;;;;;5104629;27;1291;-70
2022/11/08 06:22:03;;;;;;;;;;;10.80;99.90;;;;;;5104668;27;1088;-70
2022/11/08 06:24:29;;;;;;;;;;;10.80;99.90;;;;;;5105385;27;1166;-71
2022/11/08 06:26:55;;;;;;;;;;;10.70;99.90;;;;;;5104701;27;1012;-70
2022/11/08 06:29:20;;;;;;;;;;;10.70;99.90;;;;;;5102762;27;964;-71
2022/11/08 06:31:46;;;;;;;;;;;10.70;99.90;;;;;;5106743;27;1107;-70
2022/11/08 06:34:11;;;;;;;;;;;10.70;99.90;;;;;;5107240;27;974;-70
2022/11/08 06:36:37;;;;;;;;;;;10.60;99.90;;;;;;5106335;27;1941;-70
2022/11/08 06:39:03;;;;;;;;;;;10.50;99.90;;;;;;5104246;27;1055;-71
2022/11/08 06:41:29;;;;;;;;;;;10.50;99.90;;;;;;5102077;27;1006;-70
2022/11/08 06:43:55;;;;;;;;;;;10.50;99.90;;;;;;5100890;28;1065;-71
2022/11/08 06:46:21;;;;;;;;;;;10.50;99.90;;;;;;5110151;27;1009;-70
2022/11/08 06:48:46;;;;;;;;;;;10.50;99.90;;;;;;5083011;28;1370;-70
2022/11/08 06:51:12;;;;;;;;;;;10.60;99.90;;;;;;5084104;27;1305;-70
2022/11/08 06:53:37;;;;;;;;;;;10.60;99.90;;;;;;5103193;27;973;-70
2022/11/08 06:56:03;;;;;;;;;;;10.60;99.90;;;;;;5104528;27;1073;-71
2022/11/08 06:58:29;;;;;;;;;;;10.60;99.90;;;;;;5101177;27;1975;-70
2022/11/08 07:00:55;;;;;;;;;;;10.70;99.90;;;;;;5101269;27;1119;-70
2022/11/08 07:03:21;;;;;;;;;;;10.70;99.90;;;;;;5103120;27;1228;-70
2022/11/08 07:05:47;;;;;;;;;;;10.70;99.90;;;;;;5100360;28;1461;-70
2022/11/08 07:08:12;;;;;;;;;;;10.70;99.90;;;;;;5106714;27;1029;-70
2022/11/08 07:10:39;;;;;;;;;;;10.80;99.90;;;;;;5102208;27;1291;-71
2022/11/08 07:13:06;;;;;;;;;;;10.80;99.90;;;;;;5102244;27;1148;-71
2022/11/08 07:15:33;;;;;;;;;;;10.90;99.90;;;;;;5103265;27;1059;-70
2022/11/08 07:17:59;;;;;;;;;;;10.90;99.90;;;;;;5103219;27;1895;-71
2022/11/08 07:20:25;;;;;;;;;;;10.90;99.90;;;;;;5097605;28;1049;-71
2022/11/08 07:22:53;;;;;;;;;;;10.90;99.90;;;;;;5103529;27;1160;-70
2022/11/08 07:25:19;;;;;;;;;;;10.90;99.90;;;;;;5102744;27;1128;-71
2022/11/08 07:27:44;;;;;;;;;;;10.90;99.90;;;;;;5108006;27;1036;-70
2022/11/08 07:30:10;;;;;;;;;;;11.00;99.90;;;;;;5105258;27;1295;-71
2022/11/08 07:32:36;;;;;;;;;;;11.10;99.90;;;;;;5103559;27;1115;-71
2022/11/08 07:35:01;;;;;;;;;;;11.10;99.90;;;;;;5104838;27;1100;-70
2022/11/08 07:37:27;;;;;;;;;;;11.10;99.90;;;;;;5108498;27;1967;-71
2022/11/08 07:39:53;;;;;;;;;;;11.10;99.90;;;;;;5109693;27;988;-71
2022/11/08 07:42:18;;;;;;;;;;;11.20;99.90;;;;;;5102050;27;1265;-71
2022/11/08 07:44:48;;;;;;;;;;;11.20;99.90;;;;;;5099557;28;1054;-71
2022/11/08 07:47:14;;;;;;;;;;;11.20;99.90;;;;;;5089748;28;1093;-71
2022/11/08 07:49:39;;;;;;;;;;;11.20;99.90;;;;;;5103094;27;1101;-71
2022/11/08 07:52:05;;;;;;;;;;;11.30;99.90;;;;;;5101407;27;1313;-71
2022/11/08 07:54:30;;;;;;;;;;;11.30;99.90;;;;;;5104399;27;998;-71
2022/11/08 07:56:56;;;;;;;;;;;11.40;99.90;;;;;;5108975;27;1909;-71
2022/11/08 07:59:22;;;;;;;;;;;11.40;99.90;;;;;;5109331;27;1069;-71
2022/11/08 08:01:47;;;;;;;;;;;11.50;99.90;;;;;;5100547;28;1078;-71
2022/11/08 08:04:13;;;;;;;;;;;11.50;99.90;;;;;;5102700;27;1350;-71
2022/11/08 08:06:39;;;;;;;;;;;11.70;99.90;;;;;;5102018;27;1025;-71
2022/11/08 08:09:04;;;;;;;;;;;11.70;99.90;;;;;;5103112;27;1090;-71
2022/11/08 08:11:30;;;;;;;;;;;11.80;99.90;;;;;;5104185;28;1016;-71
2022/11/08 08:13:56;;;;;;;;;;;11.90;99.90;;;;;;5099728;28;1136;-71
2022/11/08 08:16:22;;;;;;;;;;;11.90;99.90;;;;;;5106695;27;1041;-71
2022/11/08 08:18:48;;;;;;;;;;;12.00;99.90;;;;;;5102487;28;1910;-71
2022/11/08 08:21:13;;;;;;;;;;;12.10;99.90;;;;;;5102665;27;1000;-71
2022/11/08 08:23:39;;;;;;;;;;;12.10;99.90;;;;;;5105052;27;1223;-71
2022/11/08 08:26:05;;;;;;;;;;;12.30;99.90;;;;;;5103901;28;1054;-70
2022/11/08 08:28:31;;;;;;;;;;;12.40;99.90;;;;;;5104675;28;995;-70
2022/11/08 08:30:56;;;;;;;;;;;12.40;99.90;;;;;;5105899;28;1000;-71
2022/11/08 08:33:22;;;;;;;;;;;12.50;99.90;;;;;;5102670;28;1157;-70
2022/11/08 08:35:47;;;;;;;;;;;12.50;99.90;;;;;;5105538;28;982;-71
2022/11/08 08:38:13;;;;;;;;;;;12.50;99.90;;;;;;5104114;28;1910;-71
2022/11/08 08:40:39;;;;;;;;;;;12.60;99.90;;;;;;5101853;28;1090;-70
2022/11/08 08:43:05;;;;;;;;;;;12.70;99.90;;;;;;5102675;28;1008;-70
2022/11/08 08:45:32;;;;;;;;;;;12.70;99.90;;;;;;5100692;28;1057;-70
2022/11/08 08:47:58;;;;;;;;;;;12.80;99.90;;;;;;5102854;28;1275;-71
2022/11/08 08:50:24;;;;;;;;;;;12.80;99.90;;;;;;5101461;28;996;-71
2022/11/08 08:52:50;;;;;;;;;;;12.90;99.90;;;;;;5100593;28;1285;-71
2022/11/08 08:55:16;;;;;;;;;;;12.90;99.90;;;;;;5103248;28;952;-70
2022/11/08 08:57:42;;;;;;;;;;;12.90;99.90;;;;;;5104156;28;1905;-70
2022/11/08 09:00:08;;;;;;;;;;;13.00;99.90;;;;;;5101520;28;965;-71
2022/11/08 09:02:34;;;;;;;;;;;13.00;99.90;;;;;;5102982;28;924;-71
2022/11/08 09:04:59;;;;;;;;;;;13.00;99.90;;;;;;5103518;28;1290;-71
2022/11/08 09:07:25;;;;;;;;;;;13.00;99.90;;;;;;5091073;28;1021;-71
2022/11/08 09:09:51;;;;;;;;;;;13.10;99.90;;;;;;5101547;28;977;-71
2022/11/08 09:12:16;;;;;;;;;;;13.00;99.90;;;;;;5102419;28;1095;-70
2022/11/08 09:14:42;;;;;;;;;;;13.00;99.90;;;;;;5105309;28;1318;-71
2022/11/08 09:17:07;;;;;;;;;;;13.10;99.90;;;;;;5103883;28;1972;-70
2022/11/08 09:19:33;;;;;;;;;;;13.10;99.90;;;;;;5098737;28;995;-71
2022/11/08 09:21:59;;;;;;;;;;;13.10;99.90;;;;;;5104474;28;982;-71
2022/11/08 09:24:24;;;;;;;;;;;13.10;99.90;;;;;;5088183;28;1533;-71
2022/11/08 09:26:50;;;;;;;;;;;13.10;99.90;;;;;;5097631;28;2177;-71
2022/11/08 09:29:15;;;;;;;;;;;13.20;99.90;;;;;;5105011;28;1095;-71
2022/11/08 09:31:41;;;;;;;;;;;13.30;99.90;;;;;;5101519;28;1251;-71
2022/11/08 09:34:07;;;;;;;;;;;13.20;99.90;;;;;;5103719;27;1029;-71
2022/11/08 09:36:32;;;;;;;;;;;13.30;99.90;;;;;;5111836;27;1926;-71
2022/11/08 09:38:58;;;;;;;;;;;13.30;99.90;;;;;;5105465;27;973;-71
2022/11/08 09:41:37;;;;;;;;;;;13.50;99.90;;;;;;5105321;27;987;-71
2022/11/08 09:44:14;;;;;;;;;;;13.60;99.90;;;;;;5101727;28;1025;-71
2022/11/08 09:46:51;;;;;;;;;;;13.80;99.90;;;;;;5105703;27;1043;-71
2022/11/08 09:49:19;;;;;;;;;;;14.00;99.90;;;;;;5105975;27;1099;-71
2022/11/08 09:51:45;;;;;;;;;;;14.30;99.90;;;;;;5108841;27;1427;-71
2022/11/08 09:54:15;;;;;;;;;;;14.70;99.90;;;;;;5099424;28;981;-71
2022/11/08 09:56:41;;;;;;;;;;;15.00;99.90;;;;;;5105431;27;1972;-71
2022/11/08 09:59:14;;;;;;;;;;;14.90;99.90;;;;;;5105697;27;1064;-71
2022/11/08 10:01:39;;;;;;;;;;;14.70;99.90;;;;;;5106760;27;1045;-71
2022/11/08 10:04:10;;;;;;;;;;;14.50;99.90;;;;;;5107759;27;1282;-71
2022/11/08 10:06:48;;;;;;;;;;;14.70;99.90;;;;;;5107942;27;1099;-71
2022/11/08 10:09:14;;;;;;;;;;;14.50;99.90;;;;;;5107049;27;1019;-71
2022/11/08 10:11:56;;;;;;;;;;;14.50;99.90;;;;;;5104099;27;1115;-71
2022/11/08 10:14:35;;;;;;;;;;;14.60;99.90;;;;;;5106610;27;1019;-71
2022/11/08 10:17:20;;;;;;;;;;;14.80;99.90;;;;;;5105326;27;1980;-71
2022/11/08 10:19:59;;;;;;;;;;;14.90;99.90;;;;;;5110095;27;1055;-71
2022/11/08 10:22:39;;;;;;;;;;;14.80;99.90;;;;;;5104447;27;1185;-71
2022/11/08 10:25:15;;;;;;;;;;;15.10;99.90;;;;;;5105368;27;1027;-71
2022/11/08 10:27:42;;;;;;;;;;;14.90;99.90;;;;;;5104173;27;3249;-71
2022/11/08 10:30:16;;;;;;;;;;;14.80;99.90;;;;;;5106822;27;3103;-71
2022/11/08 10:32:42;;;;;;;;;;;14.80;99.90;;;;;;5103544;27;1089;-71
2022/11/08 10:35:10;;;;;;;;;;;14.80;99.90;;;;;;5107188;27;2920;-71
2022/11/08 10:37:37;;;;;;;;;;;14.80;99.90;;;;;;5105928;27;1917;-71
2022/11/08 10:40:12;;;;;;;;;;;15.00;99.90;;;;;;5105930;27;1102;-71
2022/11/08 10:42:40;;;;;;;;;;;14.60;99.90;;;;;;5099843;27;1056;-71
2022/11/08 10:45:07;;;;;;;;;;;14.60;99.90;;;;;;5098371;27;1426;-71
2022/11/08 10:47:33;;;;;;;;;;;14.40;99.90;;;;;;5102876;27;2845;-71
2022/11/08 10:49:58;;;;;;;;;;;14.50;99.90;;;;;;5107753;27;1032;-71
2022/11/08 10:52:39;;;;;;;;;;;14.40;99.90;;;;;;5080969;28;1496;-71
2022/11/08 10:55:06;;;;;;;;;;;14.50;99.90;;;;;;5099626;28;1308;-71
2022/11/08 10:57:31;;;;;;;;;;;14.80;99.90;;;;;;5097372;28;1971;-71
2022/11/08 11:00:15;;;;;;;;;;;14.50;99.90;;;;;;5100050;28;959;-70
2022/11/08 11:02:41;;;;;;;;;;;14.50;99.90;;;;;;5097897;28;1035;-71
2022/11/08 11:05:14;;;;;;;;;;;14.50;99.90;;;;;;5099449;28;1533;-71
2022/11/08 11:07:40;;;;;;;;;;;14.40;99.90;;;;;;5098738;28;1214;-71
2022/11/08 11:10:15;;;;;;;;;;;14.30;99.90;;;;;;5098673;28;970;-71
2022/11/08 11:12:40;;;;;;;;;;;14.30;99.90;;;;;;5096367;28;3215;-70
2022/11/08 11:15:13;;;;;;;;;;;14.20;99.90;;;;;;5098477;28;3041;-70
2022/11/08 11:17:39;;;;;;;;;;;14.20;99.90;;;;;;5098320;28;1942;-71
2022/11/08 11:20:04;;;;;;;;;;;14.30;99.90;;;;;;5098810;28;1044;-71
2022/11/08 11:22:31;;;;;;;;;;;14.30;99.90;;;;;;5098277;28;3195;-70
2022/11/08 11:25:04;;;;;;;;;;;14.30;99.90;;;;;;5095341;28;3388;-70
2022/11/08 11:27:30;;;;;;;;;;;14.30;99.90;;;;;;5096611;28;3248;-70
2022/11/08 11:30:17;;;;;;;;;;;14.30;99.90;;;;;;5096429;28;2691;-70
2022/11/08 11:32:53;;;;;;;;;;;14.20;99.90;;;;;;5096344;28;1449;-70
2022/11/08 11:35:19;;;;;;;;;;;14.20;99.90;;;;;;5099705;28;1258;-70
2022/11/08 11:37:47;;;;;;;;;;;14.10;99.90;;;;;;5098103;28;1941;-70
2022/11/08 11:40:18;;;;;;;;;;;14.10;99.90;;;;;;5097608;28;1652;-70
2022/11/08 11:42:50;;;;;;;;;;;14.10;99.90;;;;;;5098461;28;2747;-70
2022/11/08 11:45:15;;;;;;;;;;;14.20;99.90;;;;;;5098089;28;1134;-70
2022/11/08 11:47:46;;;;;;;;;;;14.40;99.90;;;;;;5097401;28;1573;-71
2022/11/08 11:50:12;;;;;;;;;;;14.50;99.90;;;;;;5097028;28;1143;-71
2022/11/08 11:52:38;;;;;;;;;;;14.60;99.90;;;;;;5101457;27;1301;-70
2022/11/08 11:55:04;;;;;;;;;;;14.60;99.90;;;;;;5102679;27;1109;-71
2022/11/08 11:57:45;;;;;;;;;;;14.80;99.90;;;;;;5083565;28;1918;-70
2022/11/08 12:00:11;;;;;;;;;;;14.70;99.90;;;;;;5103479;28;1053;-70
2022/11/08 12:02:50;;;;;;;;;;;14.80;99.90;;;;;;5089601;27;1044;-70
2022/11/08 12:05:17;;;;;;;;;;;14.80;99.90;;;;;;5103059;27;1445;-71
2022/11/08 12:07:48;;;;;;;;;;;14.80;99.90;;;;;;5102565;27;1087;-71
2022/11/08 12:10:21;;;;;;;;;;;14.80;99.90;;;;;;5102064;27;1104;-71
2022/11/08 12:12:57;;;;;;;;;;;14.90;99.90;;;;;;5081949;28;1085;-70
2022/11/08 12:15:24;;;;;;;;;;;15.00;99.90;;;;;;5100386;28;1005;-70
2022/11/08 12:17:50;;;;;;;;;;;15.00;99.90;;;;;;5101423;28;1963;-70
2022/11/08 12:20:33;;;;;;;;;;;14.90;99.90;;;;;;5102629;27;1216;-71
2022/11/08 12:23:17;;;;;;;;;;;14.80;99.90;;;;;;5103353;27;1063;-71
2022/11/08 12:25:43;;;;;;;;;;;14.70;99.90;;;;;;5104099;27;1223;-71
2022/11/08 12:28:27;;;;;;;;;;;14.70;99.90;;;;;;5100520;28;1115;-70
2022/11/08 12:31:14;;;;;;;;;;;14.80;99.90;;;;;;5101066;28;1317;-71
2022/11/08 12:33:51;;;;;;;;;;;15.30;99.90;;;;;;5098609;28;1093;-71
2022/11/08 12:36:24;;;;;;;;;;;16.00;99.90;;;;;;5097936;28;1160;-71
2022/11/08 12:39:04;;;;;;;;;;;16.50;99.90;;;;;;5101662;28;1917;-71
2022/11/08 12:41:43;;;;;;;;;;;16.60;99.90;;;;;;5105686;28;1089;-71
2022/11/08 12:44:24;;;;;;;;;;;16.80;99.90;;;;;;5098555;28;1047;-71
2022/11/08 12:46:59;;;;;;;;;;;16.80;99.90;;;;;;5106794;28;1037;-71
2022/11/08 12:49:27;;;;;;;;;;;16.50;99.90;;;;;;5103830;28;1052;-71
2022/11/08 12:51:54;;;;;;;;;;;15.90;99.90;;;;;;5101937;28;1276;-71
2022/11/08 12:54:32;;;;;;;;;;;15.60;99.90;;;;;;5085179;28;955;-71
2022/11/08 12:57:00;;;;;;;;;;;15.50;99.90;;;;;;5100106;28;1909;-71
2022/11/08 12:59:28;;;;;;;;;;;15.30;99.90;;;;;;5104971;28;965;-70
2022/11/08 13:01:54;;;;;;;;;;;15.30;99.90;;;;;;5102599;28;1015;-71
2022/11/08 13:04:24;;;;;;;;;;;15.30;99.90;;;;;;5104973;28;1397;-71
2022/11/08 13:06:56;;;;;;;;;;;15.40;99.90;;;;;;5101504;27;1067;-71
2022/11/08 13:09:31;;;;;;;;;;;15.40;99.90;;;;;;5104412;27;1023;-71
2022/11/08 13:11:56;;;;;;;;;;;15.90;99.90;;;;;;5112006;27;992;-71
2022/11/08 13:14:22;;;;;;;;;;;16.60;99.90;;;;;;5105315;27;1047;-70
2022/11/08 13:17:14;;;;;;;;;;;16.30;99.90;;;;;;5110502;27;1918;-70
2022/11/08 13:19:45;;;;;;;;;;;16.00;99.90;;;;;;5106830;27;1004;-71
2022/11/08 13:22:27;;;;;;;;;;;16.40;99.90;;;;;;5109576;27;1078;-71
2022/11/08 13:24:57;;;;;;;;;;;16.50;99.90;;;;;;5106758;27;1002;-71
2022/11/08 13:27:28;;;;;;;;;;;16.30;99.90;;;;;;5107369;27;1143;-70
2022/11/08 13:29:55;;;;;;;;;;;16.00;99.90;;;;;;5091815;28;1102;-71
2022/11/08 13:32:29;;;;;;;;;;;15.80;99.90;;;;;;5109446;27;1025;-71
2022/11/08 13:35:00;;;;;;;;;;;15.60;99.90;;;;;;5108046;27;1000;-70
2022/11/08 13:37:38;;;;;;;;;;;15.40;99.90;;;;;;5105825;27;1906;-71
2022/11/08 13:40:08;;;;;;;;;;;15.30;99.90;;;;;;5111333;27;1040;-71
2022/11/08 13:42:34;;;;;;;;;;;15.40;99.90;;;;;;5085092;27;1012;-71
2022/11/08 13:45:00;;;;;;;;;;;15.90;99.90;;;;;;5105643;27;1041;-71
2022/11/08 13:47:31;;;;;;;;;;;16.20;99.90;;;;;;5099000;27;1031;-71
2022/11/08 13:50:16;;;;;;;;;;;16.50;99.90;;;;;;5105763;27;1080;-71
2022/11/08 13:52:43;;;;;;;;;;;16.70;99.90;;;;;;5107927;27;2933;-71
2022/11/08 13:55:28;;;;;;;;;;;17.00;99.90;;;;;;5105769;27;2839;-71
2022/11/08 13:57:55;;;;;;;;;;;17.10;99.90;;;;;;5107279;27;1934;-71
2022/11/08 14:00:32;;;;;;;;;;;17.00;99.90;;;;;;5110932;27;1067;-71
2022/11/08 14:02:57;;;;;;;;;;;16.70;99.90;;;;;;5107337;27;968;-70
2022/11/08 14:05:24;;;;;;;;;;;16.20;99.90;;;;;;5101250;27;1490;-71
2022/11/08 14:07:57;;;;;;;;;;;15.90;99.90;;;;;;5090868;27;1297;-71
2022/11/08 14:10:30;;;;;;;;;;;15.60;99.90;;;;;;5105487;27;1075;-71
2022/11/08 14:13:02;;;;;;;;;;;15.40;99.90;;;;;;5085103;28;1055;-70
2022/11/08 14:15:28;;;;;;;;;;;15.30;99.90;;;;;;5105181;27;1044;-70
2022/11/08 14:17:56;;;;;;;;;;;15.10;99.90;;;;;;5098501;28;2065;-70
2022/11/08 14:20:35;;;;;;;;;;;15.00;99.90;;;;;;5099014;28;1149;-71
2022/11/08 14:23:13;;;;;;;;;;;14.90;99.90;;;;;;5109188;27;976;-70
2022/11/08 14:25:39;;;;;;;;;;;14.80;99.90;;;;;;5109117;27;1067;-70
2022/11/08 14:28:19;;;;;;;;;;;14.70;99.90;;;;;;5106118;27;1019;-70
2022/11/08 14:30:46;;;;;;;;;;;14.60;99.90;;;;;;5105712;27;1372;-70
2022/11/08 14:33:12;;;;;;;;;;;14.60;99.90;;;;;;5106031;27;1057;-70
2022/11/08 14:35:38;;;;;;;;;;;14.50;99.90;;;;;;5103529;27;1029;-70
2022/11/08 14:38:12;;;;;;;;;;;14.50;99.90;;;;;;5105415;27;1905;-71
2022/11/08 14:40:38;;;;;;;;;;;14.50;99.90;;;;;;5102748;27;989;-71
2022/11/08 14:43:03;;;;;;;;;;;14.50;99.90;;;;;;5105033;27;1064;-70
2022/11/08 14:45:29;;;;;;;;;;;14.50;99.90;;;;;;5105467;27;1081;-71
2022/11/08 14:48:00;;;;;;;;;;;14.50;99.90;;;;;;5102924;28;1057;-70
2022/11/08 14:50:28;;;;;;;;;;;14.50;99.90;;;;;;5104544;27;998;-69
2022/11/08 14:52:54;;;;;;;;;;;14.40;99.90;;;;;;5106700;27;1424;-69
2022/11/08 14:55:22;;;;;;;;;;;14.40;99.90;;;;;;5107042;27;1040;-70